Castres-Mazamet Airport

LFCK · Tarn, Occitanie, France

METAR history LFCK · Castres-Mazamet Airport

Below you see METARs of the last few days. Select a year to browse through older METARs, from the year 2007 onwards.

April 14, 2024

Time Code Weather Temp. Visibility Ceiling Wind METAR/SPECI
19:30
V
28 °C 10 km+ - 260° 260° 2 kt METAR LFCK 141730Z AUTO 26002KT CAVOK 28/16 Q1020 NOSIG
19:00
V
28 °C 10 km+ - 270° 270° 2 kt METAR LFCK 141700Z AUTO 27002KT CAVOK 28/15 Q1020 NOSIG
18:30
V
29 °C 10 km+ - 250° 250° 3 kt METAR LFCK 141630Z AUTO 25003KT 220V280 CAVOK 29/16 Q1020 NOSIG
18:00
V
28 °C 10 km+ - 290° 290° 5 kt METAR LFCK 141600Z AUTO 29005KT 250V310 CAVOK 28/15 Q1021 NOSIG
17:30
V
28 °C 10 km+ - 280° 280° 4 kt METAR LFCK 141530Z AUTO 28004KT CAVOK 28/14 Q1021 NOSIG
17:00
V
28 °C 10 km+ - 270° 270° 4 kt METAR LFCK 141500Z AUTO 27004KT CAVOK 28/15 Q1021 NOSIG
16:30
V
28 °C 10 km+ - 260° 260° 5 kt METAR LFCK 141430Z AUTO 26005KT CAVOK 28/16 Q1021 NOSIG
16:00
V
28 °C 10 km+ - 260° 260° 5 kt METAR LFCK 141400Z AUTO 26005KT 220V280 CAVOK 28/15 Q1022 NOSIG
15:30
V
27 °C 10 km+ - 270° 270° 6 kt METAR LFCK 141330Z AUTO 27006KT 250V310 CAVOK 27/15 Q1022 NOSIG
15:00
V
27 °C 10 km+ - Var Var 3 kt METAR LFCK 141300Z AUTO VRB03KT CAVOK 27/15 Q1023 NOSIG
14:30
V
26 °C 10 km+ - Var Var 3 kt METAR LFCK 141230Z AUTO VRB03KT CAVOK 26/14 Q1023 NOSIG
14:00
V
25 °C 10 km+ - Var Var 3 kt METAR LFCK 141200Z AUTO VRB03KT CAVOK 25/14 Q1024 NOSIG
13:30
V
24 °C 10 km+ - 280° 280° 3 kt METAR LFCK 141130Z AUTO 28003KT 230V320 CAVOK 24/15 Q1024 NOSIG
13:00
V
24 °C 10 km+ - 280° 280° 4 kt METAR LFCK 141100Z AUTO 28004KT 250V340 CAVOK 24/14 Q1025 NOSIG
12:30
V
23 °C 10 km+ - 270° 270° 5 kt METAR LFCK 141030Z AUTO 27005KT 240V310 CAVOK 23/14 Q1025 NOSIG
12:00
V
22 °C 10 km+ - 280° 280° 6 kt METAR LFCK 141000Z AUTO 28006KT CAVOK 22/14 Q1025 NOSIG
11:30
V
21 °C 10 km+ - 280° 280° 5 kt METAR LFCK 140930Z AUTO 28005KT 260V320 CAVOK 21/13 Q1026 NOSIG
11:00
V
20 °C 10 km+ - 290° 290° 4 kt METAR LFCK 140900Z AUTO 29004KT 250V320 CAVOK 20/13 Q1026 NOSIG
10:30
V
19 °C 10 km+ - Var Var 2 kt METAR LFCK 140830Z AUTO VRB02KT CAVOK 19/12 Q1026 NOSIG
10:00
V
18 °C 10 km+ - 290° 290° 3 kt METAR LFCK 140800Z AUTO 29003KT CAVOK 18/12 Q1026 NOSIG
09:30
V
17 °C 10 km+ - Var Var 2 kt METAR LFCK 140730Z AUTO VRB02KT CAVOK 17/13 Q1026 NOSIG
09:00
V
16 °C 10 km+ - 180° 180° 2 kt METAR LFCK 140700Z AUTO 18002KT CAVOK 16/12 Q1026 NOSIG
08:30
V
14 °C 10 km+ - 280° 280° 2 kt METAR LFCK 140630Z AUTO 28002KT CAVOK 14/11 Q1026 NOSIG
08:00
V
13 °C 10 km+ - Var Var 3 kt METAR LFCK 140600Z AUTO VRB03KT CAVOK 13/10 Q1026 NOSIG
07:30
V
13 °C 10 km+ - 360° 360° 0 kt METAR LFCK 140530Z AUTO 00000KT CAVOK 13/10 Q1025 NOSIG
07:00
V
12 °C 10 km+ - 360° 360° 0 kt METAR LFCK 140500Z AUTO 00000KT CAVOK 12/10 Q1025
06:30
V
13 °C 10 km+ - 360° 360° 0 kt METAR LFCK 140430Z AUTO 00000KT CAVOK 13/09 Q1025
06:00
V
14 °C 10 km+ - 360° 360° 0 kt METAR LFCK 140400Z AUTO 00000KT CAVOK 14/10 Q1025
05:30
V
14 °C 10 km+ - 360° 360° 0 kt METAR LFCK 140330Z AUTO 00000KT CAVOK 14/10 Q1026
05:00
V
14 °C 10 km+ - 110° 110° 3 kt METAR LFCK 140300Z AUTO 11003KT CAVOK 14/10 Q1026
04:30
V
14 °C 10 km+ - Var Var 3 kt METAR LFCK 140230Z AUTO VRB03KT CAVOK 14/10 Q1026
04:00
V
14 °C 10 km+ - Var Var 2 kt METAR LFCK 140200Z AUTO VRB02KT CAVOK 14/10 Q1026
03:30
V
15 °C 10 km+ - 140° 140° 5 kt METAR LFCK 140130Z AUTO 14005KT CAVOK 15/10 Q1026
03:00
V
15 °C 10 km+ - 140° 140° 5 kt METAR LFCK 140100Z AUTO 14005KT CAVOK 15/11 Q1026
02:30
V
14 °C 10 km+ - 140° 140° 6 kt METAR LFCK 140030Z AUTO 14006KT CAVOK 14/11 Q1026
02:00
V
15 °C 10 km+ - 140° 140° 6 kt METAR LFCK 140000Z AUTO 14006KT CAVOK 15/11 Q1027
01:30
V
15 °C 10 km+ - 130° 130° 3 kt METAR LFCK 132330Z AUTO 13003KT CAVOK 15/11 Q1027
01:00
V
15 °C 10 km+ - 130° 130° 6 kt METAR LFCK 132300Z AUTO 13006KT CAVOK 15/11 Q1027
00:30
V
16 °C 10 km+ - 140° 140° 7 kt METAR LFCK 132230Z AUTO 14007KT 100V160 CAVOK 16/11 Q1027
00:00
V
18 °C 10 km+ - 140° 140° 7 kt METAR LFCK 132200Z AUTO 14007KT CAVOK 18/11 Q1027

April 13, 2024

Time Code Weather Temp. Visibility Ceiling Wind METAR/SPECI
23:30
V
18 °C 10 km+ - 130° 130° 4 kt METAR LFCK 132130Z AUTO 13004KT CAVOK 18/11 Q1027
23:00
V
18 °C 10 km+ - 140° 140° 5 kt METAR LFCK 132100Z AUTO 14005KT CAVOK 18/12 Q1026 NOSIG
22:30
V
18 °C 10 km+ - 140° 140° 5 kt METAR LFCK 132030Z AUTO 14005KT CAVOK 18/12 Q1026 NOSIG
22:00
V
18 °C 10 km+ - 130° 130° 6 kt METAR LFCK 132000Z AUTO 13006KT CAVOK 18/11 Q1026 NOSIG
21:30
V
19 °C 10 km+ - 130° 130° 5 kt METAR LFCK 131930Z AUTO 13005KT CAVOK 19/12 Q1026 NOSIG
21:00
V
21 °C 10 km+ - 160° 160° 5 kt METAR LFCK 131900Z AUTO 16005KT CAVOK 21/12 Q1026 NOSIG
20:30
V
24 °C 10 km+ - 200° 200° 4 kt METAR LFCK 131830Z AUTO 20004KT CAVOK 24/11 Q1025 NOSIG
20:00
V
26 °C 10 km+ - 260° 260° 3 kt METAR LFCK 131800Z AUTO 26003KT CAVOK 26/12 Q1025 NOSIG
19:30
V
27 °C 10 km+ - 270° 270° 4 kt METAR LFCK 131730Z AUTO 27004KT CAVOK 27/13 Q1026 NOSIG
19:00
V
28 °C 10 km+ - 270° 270° 5 kt METAR LFCK 131700Z AUTO 27005KT CAVOK 28/12 Q1026 NOSIG
18:30
V
28 °C 10 km+ - 270° 270° 5 kt METAR LFCK 131630Z AUTO 27005KT CAVOK 28/10 Q1026 NOSIG
18:00
V
28 °C 10 km+ - 260° 260° 5 kt METAR LFCK 131600Z AUTO 26005KT CAVOK 28/10 Q1026 NOSIG
17:30
V
28 °C 10 km+ - 280° 280° 4 kt METAR LFCK 131530Z AUTO 28004KT 240V310 CAVOK 28/10 Q1026 NOSIG
17:00
V
28 °C 10 km+ - 290° 290° 5 kt METAR LFCK 131500Z AUTO 29005KT CAVOK 28/10 Q1026 NOSIG
16:30
V
28 °C 10 km+ - 270° 270° 6 kt METAR LFCK 131430Z AUTO 27006KT 240V300 CAVOK 28/11 Q1026 NOSIG
16:00
V
27 °C 10 km+ - 280° 280° 7 kt METAR LFCK 131400Z AUTO 28007KT 250V310 CAVOK 27/12 Q1026 NOSIG
15:30
V
27 °C 10 km+ - 280° 280° 6 kt METAR LFCK 131330Z AUTO 28006KT 240V320 CAVOK 27/12 Q1027 NOSIG
15:00
V
26 °C 10 km+ - 270° 270° 5 kt METAR LFCK 131300Z AUTO 27005KT 220V310 CAVOK 26/12 Q1027 NOSIG
14:30
V
26 °C 10 km+ - 270° 270° 5 kt METAR LFCK 131230Z AUTO 27005KT CAVOK 26/12 Q1027 NOSIG
14:00
V
25 °C 10 km+ - 290° 290° 5 kt METAR LFCK 131200Z AUTO 29005KT 250V340 CAVOK 25/13 Q1028 NOSIG
13:30
V
24 °C 10 km+ - 280° 280° 4 kt METAR LFCK 131130Z AUTO 28004KT 250V310 CAVOK 24/11 Q1028 NOSIG
13:00
V
23 °C 10 km+ - 290° 290° 4 kt METAR LFCK 131100Z AUTO 29004KT 250V330 CAVOK 23/11 Q1028 NOSIG
12:30
V
23 °C 10 km+ - 290° 290° 3 kt METAR LFCK 131030Z AUTO 29003KT 230V340 CAVOK 23/13 Q1029 NOSIG
12:00
V
21 °C 10 km+ - 280° 280° 4 kt METAR LFCK 131000Z AUTO 28004KT 240V320 CAVOK 21/11 Q1029 NOSIG
11:30
V
20 °C 10 km+ - 280° 280° 4 kt METAR LFCK 130930Z AUTO 28004KT 250V310 CAVOK 20/11 Q1029 NOSIG
11:00
V
19 °C 10 km+ - 290° 290° 3 kt METAR LFCK 130900Z AUTO 29003KT CAVOK 19/12 Q1029 NOSIG
10:30
V
18 °C 10 km+ - 300° 300° 2 kt METAR LFCK 130830Z AUTO 30002KT CAVOK 18/12 Q1029 NOSIG
10:00
V
17 °C 10 km+ - 290° 290° 2 kt METAR LFCK 130800Z AUTO 29002KT CAVOK 17/12 Q1029 NOSIG
09:30
V
16 °C 10 km+ - Var Var 1 kt METAR LFCK 130730Z AUTO VRB01KT CAVOK 16/12 Q1029 NOSIG
09:00
V
16 °C 10 km+ - 360° 360° 0 kt METAR LFCK 130700Z AUTO 00000KT CAVOK 16/11 Q1029 NOSIG
08:30
V
13 °C 10 km+ - 140° 140° 1 kt METAR LFCK 130630Z AUTO 14001KT CAVOK 13/09 Q1029 NOSIG
08:00
V
11 °C 10 km+ - 360° 360° 0 kt METAR LFCK 130600Z AUTO 00000KT CAVOK 11/09 Q1029 NOSIG
07:30
V
9 °C 10 km+ - 360° 360° 0 kt METAR LFCK 130530Z AUTO 00000KT CAVOK 09/08 Q1029
07:00
V
10 °C 10 km+ - 360° 360° 0 kt METAR LFCK 130500Z AUTO 00000KT CAVOK 10/07 Q1029
06:30
V
10 °C 10 km+ - 360° 360° 0 kt METAR LFCK 130430Z AUTO 00000KT CAVOK 10/07 Q1029
06:00
V
12 °C 10 km+ - 360° 360° 0 kt METAR LFCK 130400Z AUTO 00000KT CAVOK 12/08 Q1029
05:30
V
12 °C 10 km+ - 080° 080° 3 kt METAR LFCK 130330Z AUTO 08003KT CAVOK 12/08 Q1029
05:00
V
11 °C 10 km+ - 090° 090° 3 kt METAR LFCK 130300Z AUTO 09003KT CAVOK 11/08 Q1029
04:30
V
12 °C 10 km+ - 110° 110° 2 kt METAR LFCK 130230Z AUTO 11002KT CAVOK 12/08 Q1029
04:00
V
12 °C 10 km+ - 120° 120° 3 kt METAR LFCK 130200Z AUTO 12003KT CAVOK 12/08 Q1029
03:30
V
11 °C 10 km+ - 150° 150° 6 kt METAR LFCK 130130Z AUTO 15006KT CAVOK 11/08 Q1029
03:00
V
12 °C 10 km+ - 130° 130° 5 kt METAR LFCK 130100Z AUTO 13005KT CAVOK 12/08 Q1029
02:30
V
12 °C 10 km+ - 120° 120° 3 kt METAR LFCK 130030Z AUTO 12003KT CAVOK 12/07 Q1030
02:00
V
12 °C 10 km+ - 120° 120° 4 kt METAR LFCK 130000Z AUTO 12004KT CAVOK 12/07 Q1030
01:30
V
11 °C 10 km+ - 140° 140° 4 kt METAR LFCK 122330Z AUTO 14004KT CAVOK 11/07 Q1030
01:00
V
12 °C 10 km+ - 130° 130° 4 kt METAR LFCK 122300Z AUTO 13004KT CAVOK 12/08 Q1030
00:30
V
12 °C 10 km+ - 110° 110° 4 kt METAR LFCK 122230Z AUTO 11004KT CAVOK 12/07 Q1030
00:00
V
12 °C 10 km+ - 110° 110° 4 kt METAR LFCK 122200Z AUTO 11004KT 060V130 CAVOK 12/08 Q1030

April 12, 2024

Time Code Weather Temp. Visibility Ceiling Wind METAR/SPECI
23:30
V
12 °C 10 km+ - 140° 140° 7 kt METAR LFCK 122130Z AUTO 14007KT CAVOK 12/07 Q1030
23:00
V
15 °C 10 km+ - Var Var 2 kt METAR LFCK 122100Z AUTO VRB02KT CAVOK 15/07 Q1030 NOSIG
22:30
V
14 °C 10 km+ - 120° 120° 5 kt METAR LFCK 122030Z AUTO 12005KT CAVOK 14/07 Q1030 NOSIG
22:00
V
14 °C 10 km+ - 140° 140° 7 kt METAR LFCK 122000Z AUTO 14007KT CAVOK 14/08 Q1029 NOSIG
21:30
V
15 °C 10 km+ - 120° 120° 3 kt METAR LFCK 121930Z AUTO 12003KT CAVOK 15/07 Q1029 NOSIG
21:00
V
17 °C 10 km+ - 160° 160° 5 kt METAR LFCK 121900Z AUTO 16005KT CAVOK 17/08 Q1029 NOSIG
20:30
V
21 °C 10 km+ - 240° 240° 2 kt METAR LFCK 121830Z AUTO 24002KT CAVOK 21/05 Q1029 NOSIG
20:00
V
22 °C 10 km+ - 250° 250° 2 kt METAR LFCK 121800Z AUTO 25002KT CAVOK 22/07 Q1029 NOSIG
19:30
V
24 °C 10 km+ - 290° 290° 4 kt METAR LFCK 121730Z AUTO 29004KT CAVOK 24/06 Q1029 NOSIG
19:00
V
24 °C 10 km+ - 310° 310° 5 kt METAR LFCK 121700Z AUTO 31005KT CAVOK 24/07 Q1029 NOSIG
18:30
V
24 °C 10 km+ - 290° 290° 7 kt METAR LFCK 121630Z AUTO 29007KT CAVOK 24/05 Q1029 NOSIG
18:00
V
24 °C 10 km+ - 270° 270° 7 kt METAR LFCK 121600Z AUTO 27007KT CAVOK 24/06 Q1029 NOSIG
17:30
V
24 °C 10 km+ - 270° 270° 7 kt METAR LFCK 121530Z AUTO 27007KT CAVOK 24/06 Q1029 NOSIG
17:00
V
24 °C 10 km+ - 270° 270° 6 kt METAR LFCK 121500Z AUTO 27006KT CAVOK 24/06 Q1030 NOSIG
16:30
V
24 °C 10 km+ - 280° 280° 5 kt METAR LFCK 121430Z AUTO 28005KT 240V320 CAVOK 24/06 Q1030 NOSIG
16:00
V
23 °C 10 km+ - Var Var 4 kt METAR LFCK 121400Z AUTO VRB04KT CAVOK 23/08 Q1030 NOSIG
15:30
V
23 °C 10 km+ - 300° 300° 5 kt METAR LFCK 121330Z AUTO 30005KT 260V010 CAVOK 23/07 Q1031 NOSIG
15:00
V
22 °C 10 km+ - 270° 270° 4 kt METAR LFCK 121300Z AUTO 27004KT 220V330 CAVOK 22/11 Q1031 NOSIG
14:30
V
22 °C 10 km+ - 240° 240° 3 kt METAR LFCK 121230Z AUTO 24003KT 180V290 CAVOK 22/10 Q1032 NOSIG
14:00
V
21 °C 10 km+ - 280° 280° 4 kt METAR LFCK 121200Z AUTO 28004KT 250V340 CAVOK 21/12 Q1032 NOSIG
13:30
V
20 °C 10 km+ - 280° 280° 6 kt METAR LFCK 121130Z AUTO 28006KT 240V310 CAVOK 20/12 Q1032 NOSIG
13:00
V
20 °C 10 km+ - 280° 280° 4 kt METAR LFCK 121100Z AUTO 28004KT 230V330 CAVOK 20/11 Q1033 NOSIG
12:30
V
19 °C 10 km+ - 300° 300° 5 kt METAR LFCK 121030Z AUTO 30005KT 260V350 CAVOK 19/11 Q1033 NOSIG
12:00
V
18 °C 10 km+ - 280° 280° 3 kt METAR LFCK 121000Z AUTO 28003KT 230V320 CAVOK 18/11 Q1033 NOSIG
11:30
V
17 °C 10 km+ - Var Var 3 kt METAR LFCK 120930Z AUTO VRB03KT CAVOK 17/11 Q1033 NOSIG
11:00
V
16 °C 10 km+ - Var Var 2 kt METAR LFCK 120900Z AUTO VRB02KT CAVOK 16/11 Q1033 NOSIG
10:30
V
15 °C 10 km+ - 360° 360° 0 kt METAR LFCK 120830Z AUTO 00000KT CAVOK 15/10 Q1033 NOSIG
10:00
V
13 °C 10 km+ - Var Var 2 kt METAR LFCK 120800Z AUTO VRB02KT CAVOK 13/10 Q1033 NOSIG
09:30
V
12 °C 10 km+ - Var Var 2 kt METAR LFCK 120730Z AUTO VRB02KT CAVOK 12/10 Q1033 NOSIG
09:00
V
11 °C 10 km+ - 360° 360° 0 kt METAR LFCK 120700Z AUTO 00000KT CAVOK 11/09 Q1033 NOSIG
08:30
V
9 °C 10 km+ - 360° 360° 0 kt METAR LFCK 120630Z AUTO 00000KT CAVOK 09/09 Q1033 NOSIG
08:00
V
8 °C 10 km+ - 090° 090° 1 kt METAR LFCK 120600Z AUTO 09001KT CAVOK 08/07 Q1033 NOSIG
Report a change